Time;durP1;ratioP1;P1;durP2;ratioP2;P2;SDS_P1;SDS_P2;PMS_P1;PMS_P2;Temp;Humidity;BMP_temperature;BMP_pressure;BME280_temperature;BME280_humidity;BME280_pressure;Samples;Min_cycle;Max_cycle;Signal;HPM_P1;HPM_P2
2023/03/04 00:01:20;;;;;;;9.95;2.00;;;6.10;99.90;;;;;;5033951;28;20095;-59
2023/03/04 00:03:46;;;;;;;11.57;2.00;;;6.10;99.90;;;;;;5034247;28;20472;-54
2023/03/04 00:06:13;;;;;;;9.32;2.28;;;6.10;99.90;;;;;;5034412;28;20037;-59
2023/03/04 00:08:40;;;;;;;9.38;2.13;;;6.00;99.90;;;;;;5034154;28;20065;-57
2023/03/04 00:11:06;;;;;;;12.07;2.00;;;6.00;99.90;;;;;;5033612;28;20107;-58
2023/03/04 00:13:33;;;;;;;11.23;2.25;;;6.00;99.90;;;;;;5033851;28;20092;-59
2023/03/04 00:16:00;;;;;;;10.05;1.98;;;6.00;99.90;;;;;;5033994;28;20424;-56
2023/03/04 00:18:27;;;;;;;9.25;2.00;;;6.00;99.90;;;;;;5033954;28;20065;-60
2023/03/04 00:20:54;;;;;;;10.38;1.98;;;6.00;99.90;;;;;;5033501;28;20111;-61
2023/03/04 00:23:20;;;;;;;12.20;2.10;;;6.00;99.90;;;;;;5033794;28;20075;-57
2023/03/04 00:25:47;;;;;;;10.68;2.25;;;6.00;99.90;;;;;;5033847;28;20045;-55
2023/03/04 00:28:14;;;;;;;12.40;2.25;;;6.00;99.90;;;;;;5032832;28;20484;-59
2023/03/04 00:30:41;;;;;;;9.82;1.98;;;6.00;99.90;;;;;;5032454;28;20049;-56
2023/03/04 00:33:08;;;;;;;10.02;2.17;;;6.00;99.90;;;;;;5027242;28;20037;-56
2023/03/04 00:35:34;;;;;;;10.52;1.90;;;6.00;99.90;;;;;;5031214;28;20046;-59
2023/03/04 00:38:01;;;;;;;7.15;1.92;;;5.90;99.90;;;;;;5033541;28;20462;-58
2023/03/04 00:40:28;;;;;;;9.80;2.10;;;5.90;99.90;;;;;;5033672;28;20053;-58
2023/03/04 00:42:55;;;;;;;12.13;2.40;;;5.90;99.90;;;;;;5031496;28;20041;-58
2023/03/04 00:45:21;;;;;;;10.80;1.95;;;5.80;99.90;;;;;;5033781;28;20049;-57
2023/03/04 00:47:48;;;;;;;12.27;2.50;;;5.80;99.90;;;;;;5032379;28;20057;-58
2023/03/04 00:50:15;;;;;;;9.85;1.65;;;5.90;99.90;;;;;;5032320;28;20107;-58
2023/03/04 00:52:42;;;;;;;14.73;2.22;;;5.80;99.90;;;;;;5033169;28;20488;-57
2023/03/04 00:55:08;;;;;;;13.45;1.63;;;5.80;99.90;;;;;;5033047;28;20477;-59
2023/03/04 00:57:35;;;;;;;10.30;1.92;;;5.80;99.90;;;;;;5033448;28;20040;-59
2023/03/04 01:00:02;;;;;;;8.50;1.92;;;5.90;99.90;;;;;;5033330;28;20041;-56
2023/03/04 01:02:29;;;;;;;10.68;2.40;;;5.90;99.90;;;;;;5032581;28;20049;-56
2023/03/04 01:04:56;;;;;;;7.25;2.03;;;5.90;99.90;;;;;;5033836;28;20044;-60
2023/03/04 01:07:22;;;;;;;10.27;2.13;;;5.90;99.90;;;;;;5034026;28;20384;-59
2023/03/04 01:09:49;;;;;;;11.88;1.80;;;5.80;99.90;;;;;;5033429;28;20175;-61
2023/03/04 01:12:17;;;;;;;10.18;2.38;;;5.90;99.90;;;;;;5032176;28;20045;-55
2023/03/04 01:14:44;;;;;;;9.02;1.77;;;5.90;99.90;;;;;;5033243;28;20107;-56
2023/03/04 01:17:12;;;;;;;12.23;1.90;;;5.90;99.90;;;;;;5033861;28;20084;-61
2023/03/04 01:19:38;;;;;;;14.02;2.28;;;5.90;99.90;;;;;;5032591;28;20091;-58
2023/03/04 01:22:05;;;;;;;7.43;1.60;;;5.80;99.90;;;;;;5032034;28;20072;-58
2023/03/04 01:24:32;;;;;;;12.48;2.03;;;5.80;99.90;;;;;;5031813;28;20554;-61
2023/03/04 01:26:59;;;;;;;12.57;1.75;;;5.70;99.90;;;;;;5033857;28;20481;-57
2023/03/04 01:29:25;;;;;;;9.43;1.73;;;5.80;99.90;;;;;;5033755;28;20091;-58
2023/03/04 01:31:55;;;;;;;9.88;1.67;;;5.80;99.90;;;;;;5033654;28;20038;-60
2023/03/04 01:34:22;;;;;;;9.43;2.05;;;5.80;99.90;;;;;;5033369;28;20085;-58
2023/03/04 01:36:49;;;;;;;7.90;1.90;;;5.80;99.90;;;;;;5032338;28;20461;-59
2023/03/04 01:39:17;;;;;;;10.10;1.70;;;5.70;99.90;;;;;;5034675;28;20045;-60
2023/03/04 01:41:44;;;;;;;7.20;1.35;;;5.80;99.90;;;;;;5036401;28;20099;-57
2023/03/04 01:44:10;;;;;;;8.88;1.48;;;5.80;99.90;;;;;;5035873;28;20054;-58
2023/03/04 01:46:37;;;;;;;11.25;1.55;;;5.80;99.90;;;;;;5036303;28;20041;-59
2023/03/04 01:49:04;;;;;;;8.32;1.67;;;5.80;99.90;;;;;;5036368;28;20041;-60
2023/03/04 01:51:31;;;;;;;9.98;1.60;;;5.80;99.90;;;;;;5037424;28;20038;-61
2023/03/04 01:53:57;;;;;;;9.50;1.95;;;5.80;99.90;;;;;;5035754;28;20046;-61
2023/03/04 01:56:24;;;;;;;10.93;2.60;;;5.80;99.90;;;;;;5037091;28;20048;-55
2023/03/04 01:58:51;;;;;;;10.43;1.45;;;5.80;99.90;;;;;;5036030;28;20052;-59
2023/03/04 02:01:18;;;;;;;8.25;1.40;;;5.80;99.90;;;;;;5037378;28;20400;-58
2023/03/04 02:03:44;;;;;;;10.13;2.17;;;5.80;99.90;;;;;;5036917;28;20049;-61
2023/03/04 02:06:11;;;;;;;9.35;1.98;;;5.70;99.90;;;;;;5035653;28;20053;-60
2023/03/04 02:08:38;;;;;;;15.30;1.70;;;5.80;99.90;;;;;;5036952;28;20103;-57
2023/03/04 02:11:05;;;;;;;9.32;2.17;;;5.70;99.90;;;;;;5036610;28;20493;-60
2023/03/04 02:13:33;;;;;;;10.25;1.55;;;5.80;99.90;;;;;;5035025;28;20080;-59
2023/03/04 02:15:59;;;;;;;7.00;1.55;;;5.70;99.90;;;;;;5036752;28;20037;-55
2023/03/04 02:18:26;;;;;;;11.30;2.05;;;5.70;99.90;;;;;;5036423;28;20041;-58
2023/03/04 02:20:53;;;;;;;9.68;1.83;;;5.70;99.90;;;;;;5036444;28;20116;-54
2023/03/04 02:23:20;;;;;;;8.65;1.48;;;5.70;99.90;;;;;;5011138;28;20050;-59
2023/03/04 02:25:47;;;;;;;12.75;1.77;;;5.70;99.90;;;;;;5023945;28;20434;-59
2023/03/04 02:28:13;;;;;;;12.13;2.05;;;5.80;99.90;;;;;;5026582;28;20072;-58
2023/03/04 02:30:41;;;;;;;8.00;1.77;;;5.80;99.90;;;;;;5027001;28;20034;-59
2023/03/04 02:33:07;;;;;;;8.82;1.85;;;5.80;99.90;;;;;;5023524;28;20128;-52
2023/03/04 02:35:34;;;;;;;13.63;1.90;;;5.80;99.90;;;;;;5024796;28;20416;-58
2023/03/04 02:38:01;;;;;;;7.93;1.60;;;5.80;99.90;;;;;;5025599;28;20378;-60
2023/03/04 02:40:28;;;;;;;10.98;1.90;;;5.80;99.90;;;;;;5026312;28;20033;-57
2023/03/04 02:42:55;;;;;;;10.13;1.40;;;5.80;99.90;;;;;;5027637;28;20485;-58
2023/03/04 02:45:22;;;;;;;8.13;1.67;;;5.70;99.90;;;;;;5023518;28;20044;-56
2023/03/04 02:47:49;;;;;;;5.65;1.40;;;5.70;99.90;;;;;;5025046;28;20145;-59
2023/03/04 02:50:16;;;;;;;8.50;1.58;;;5.70;99.90;;;;;;5025367;28;20045;-56
2023/03/04 02:52:42;;;;;;;6.38;1.55;;;5.70;99.90;;;;;;5025112;28;20053;-55
2023/03/04 02:55:09;;;;;;;7.38;1.38;;;5.70;99.90;;;;;;5023442;28;20421;-54
2023/03/04 02:57:36;;;;;;;9.07;1.70;;;5.70;99.90;;;;;;5023946;28;20403;-58
2023/03/04 03:00:03;;;;;;;4.80;1.30;;;5.70;99.90;;;;;;5026526;28;20117;-55
2023/03/04 03:02:30;;;;;;;7.50;1.35;;;5.70;99.90;;;;;;5023158;28;20049;-56
2023/03/04 03:04:57;;;;;;;12.68;1.52;;;5.80;99.90;;;;;;5025194;28;20061;-57
2023/03/04 03:07:25;;;;;;;9.30;1.48;;;5.80;99.90;;;;;;5026369;28;20117;-58
2023/03/04 03:09:52;;;;;;;7.53;1.17;;;5.70;99.90;;;;;;5023764;28;20046;-57
2023/03/04 03:12:19;;;;;;;8.07;1.65;;;5.70;99.90;;;;;;5024670;28;20041;-58
2023/03/04 03:14:46;;;;;;;10.75;1.60;;;5.70;99.90;;;;;;5024976;28;20115;-60
2023/03/04 03:17:16;;;;;;;12.82;1.80;;;5.80;99.90;;;;;;5024357;28;20045;-56
2023/03/04 03:19:43;;;;;;;7.97;2.00;;;5.70;99.90;;;;;;5024176;28;20118;-57
2023/03/04 03:22:11;;;;;;;7.93;1.35;;;5.70;99.90;;;;;;5035945;28;20046;-60
2023/03/04 03:24:38;;;;;;;12.98;1.83;;;5.70;99.90;;;;;;5033795;28;20049;-61
2023/03/04 03:27:05;;;;;;;6.05;1.50;;;5.70;99.90;;;;;;5035555;28;20038;-57
2023/03/04 03:29:32;;;;;;;6.18;1.50;;;5.70;99.90;;;;;;5034104;28;20060;-57
2023/03/04 03:31:58;;;;;;;8.55;1.50;;;5.70;99.90;;;;;;5035462;28;20103;-60
2023/03/04 03:34:25;;;;;;;7.97;1.55;;;5.70;99.90;;;;;;5034769;28;20037;-58
2023/03/04 03:36:52;;;;;;;7.43;1.27;;;5.70;99.90;;;;;;5034232;28;20041;-55
2023/03/04 03:39:19;;;;;;;8.75;1.95;;;5.70;99.90;;;;;;5035468;28;20099;-60
2023/03/04 03:41:45;;;;;;;9.40;1.50;;;5.70;99.90;;;;;;5035393;28;20103;-59
2023/03/04 03:44:12;;;;;;;9.80;1.88;;;5.60;99.90;;;;;;5034894;28;20527;-59
2023/03/04 03:46:39;;;;;;;6.97;1.40;;;5.60;99.90;;;;;;5035203;28;20046;-55
2023/03/04 03:49:06;;;;;;;9.65;1.63;;;5.60;99.90;;;;;;5035394;28;20087;-57
2023/03/04 03:51:32;;;;;;;8.45;1.58;;;5.60;99.90;;;;;;5035178;28;20111;-59
2023/03/04 03:53:59;;;;;;;5.07;1.40;;;5.60;99.90;;;;;;5034579;28;20037;-61
2023/03/04 03:56:26;;;;;;;15.10;2.00;;;5.60;99.90;;;;;;5034929;28;20041;-58
2023/03/04 03:58:52;;;;;;;7.88;1.75;;;5.50;99.90;;;;;;5034830;28;20034;-54
2023/03/04 04:01:19;;;;;;;7.85;1.20;;;5.60;99.90;;;;;;5034982;28;20115;-58
2023/03/04 04:03:46;;;;;;;12.60;2.03;;;5.60;99.90;;;;;;5033626;28;20038;-58
2023/03/04 04:06:13;;;;;;;7.60;1.80;;;5.60;99.90;;;;;;5033516;28;20134;-59
2023/03/04 04:08:40;;;;;;;9.70;1.73;;;5.50;99.90;;;;;;5035053;28;20045;-59
2023/03/04 04:11:06;;;;;;;6.32;1.40;;;5.60;99.90;;;;;;5034429;28;20041;-56
2023/03/04 04:13:33;;;;;;;7.55;1.50;;;5.50;99.90;;;;;;5034179;28;20049;-56
2023/03/04 04:16:00;;;;;;;11.63;1.60;;;5.50;99.90;;;;;;5034644;28;20042;-56
2023/03/04 04:18:26;;;;;;;10.43;1.45;;;5.50;99.90;;;;;;5034537;28;20108;-61
2023/03/04 04:20:53;;;;;;;10.75;2.05;;;5.60;99.90;;;;;;5034672;28;20042;-59
2023/03/04 04:23:20;;;;;;;8.43;1.33;;;5.60;99.90;;;;;;5034024;28;20045;-57
2023/03/04 04:25:47;;;;;;;8.50;1.50;;;5.70;99.90;;;;;;5034337;28;20455;-60
2023/03/04 04:28:13;;;;;;;5.93;1.50;;;5.70;99.90;;;;;;5034235;28;20045;-60
2023/03/04 04:30:40;;;;;;;6.85;1.35;;;5.70;99.90;;;;;;5034159;28;20069;-59
2023/03/04 04:33:07;;;;;;;7.50;1.20;;;5.60;99.90;;;;;;5034395;28;20037;-58
2023/03/04 04:35:34;;;;;;;8.20;1.35;;;5.60;99.90;;;;;;5033680;28;20088;-56
2023/03/04 04:38:01;;;;;;;6.30;1.70;;;5.70;99.90;;;;;;5034584;28;20461;-59
2023/03/04 04:40:27;;;;;;;10.63;1.63;;;5.70;99.90;;;;;;5033881;28;20542;-57
2023/03/04 04:42:54;;;;;;;5.97;1.30;;;5.70;99.90;;;;;;5034170;28;20038;-60
2023/03/04 04:45:21;;;;;;;7.25;1.60;;;5.70;99.90;;;;;;5033812;28;20067;-60
2023/03/04 04:47:48;;;;;;;8.23;1.63;;;5.70;99.90;;;;;;5033786;28;20435;-61
2023/03/04 04:50:14;;;;;;;11.52;2.33;;;5.80;99.90;;;;;;5034240;28;20494;-59
2023/03/04 04:52:41;;;;;;;10.77;1.77;;;5.70;99.90;;;;;;5034045;28;20080;-60
2023/03/04 04:55:08;;;;;;;7.28;1.25;;;5.70;99.90;;;;;;5033521;28;20547;-60
2023/03/04 04:57:35;;;;;;;8.20;1.38;;;5.70;99.90;;;;;;5034069;28;20105;-57
2023/03/04 05:00:01;;;;;;;9.52;1.45;;;5.70;99.90;;;;;;5033947;28;20049;-54
2023/03/04 05:02:28;;;;;;;7.50;1.23;;;5.70;99.90;;;;;;5033963;28;20038;-56
2023/03/04 05:04:55;;;;;;;8.05;1.75;;;5.70;99.90;;;;;;5034097;28;20424;-56
2023/03/04 05:07:21;;;;;;;7.63;1.75;;;5.70;99.90;;;;;;5033829;28;20045;-59
2023/03/04 05:09:48;;;;;;;7.18;1.52;;;5.70;99.90;;;;;;5033565;28;20095;-58
2023/03/04 05:12:15;;;;;;;8.05;2.42;;;5.70;99.90;;;;;;5033792;28;20100;-59
2023/03/04 05:14:42;;;;;;;9.15;1.70;;;5.70;99.90;;;;;;5032958;28;20451;-60
2023/03/04 05:17:08;;;;;;;9.40;1.50;;;5.70;99.90;;;;;;5033892;28;20061;-60
2023/03/04 05:19:35;;;;;;;9.52;1.55;;;5.70;99.90;;;;;;5033919;28;20045;-56
2023/03/04 05:22:02;;;;;;;7.50;1.45;;;5.60;99.90;;;;;;5033591;28;20069;-54
2023/03/04 05:24:28;;;;;;;4.28;1.40;;;5.60;99.90;;;;;;5033384;28;20045;-57
2023/03/04 05:26:55;;;;;;;9.95;1.92;;;5.60;99.90;;;;;;5033616;28;20479;-57
2023/03/04 05:29:22;;;;;;;8.48;1.58;;;5.60;99.90;;;;;;5033630;28;20524;-57
2023/03/04 05:31:49;;;;;;;11.82;1.90;;;5.70;99.90;;;;;;5033761;28;20049;-60
2023/03/04 05:34:15;;;;;;;12.93;2.20;;;5.70;99.90;;;;;;5033133;28;20400;-58
2023/03/04 05:36:42;;;;;;;11.38;1.77;;;5.60;99.90;;;;;;5033408;28;20046;-60
2023/03/04 05:39:09;;;;;;;8.27;1.55;;;5.50;99.90;;;;;;5033317;28;20037;-61
2023/03/04 05:41:36;;;;;;;9.20;2.08;;;5.50;99.90;;;;;;5033251;28;20037;-55
2023/03/04 05:44:02;;;;;;;12.65;2.22;;;5.50;99.90;;;;;;5033187;28;20450;-57
2023/03/04 05:46:29;;;;;;;11.57;2.10;;;5.40;99.90;;;;;;5033204;28;20073;-55
2023/03/04 05:48:59;;;;;;;9.15;2.03;;;5.40;99.90;;;;;;5033429;28;20065;-61
2023/03/04 05:51:25;;;;;;;9.07;2.00;;;5.50;99.90;;;;;;5033004;28;20539;-60
2023/03/04 05:53:52;;;;;;;8.25;1.88;;;5.50;99.90;;;;;;5031477;28;20393;-58
2023/03/04 05:56:19;;;;;;;9.70;1.88;;;5.50;99.90;;;;;;5033545;28;20099;-59
2023/03/04 05:58:46;;;;;;;10.10;1.70;;;5.50;99.90;;;;;;5033040;28;20038;-59
2023/03/04 06:01:13;;;;;;;12.52;2.38;;;5.50;99.90;;;;;;5032848;28;20041;-57
2023/03/04 06:03:42;;;;;;;5.38;2.00;;;5.50;99.90;;;;;;5032991;28;20092;-58
2023/03/04 06:06:09;;;;;;;8.30;2.50;;;5.40;99.90;;;;;;5033137;28;20050;-59
2023/03/04 06:08:35;;;;;;;7.50;2.03;;;5.40;99.90;;;;;;5032831;28;20049;-61
2023/03/04 06:11:04;;;;;;;6.65;1.85;;;5.40;99.90;;;;;;5033244;28;20500;-61
2023/03/04 06:13:31;;;;;;;8.38;2.80;;;5.40;99.90;;;;;;5032482;28;20057;-58
2023/03/04 06:15:58;;;;;;;9.82;2.33;;;5.40;99.90;;;;;;5033189;28;20042;-57
2023/03/04 06:18:24;;;;;;;10.32;2.53;;;5.40;99.90;;;;;;5032716;28;20045;-58
2023/03/04 06:20:51;;;;;;;12.68;2.50;;;5.40;99.90;;;;;;5033036;28;20037;-58
2023/03/04 06:23:18;;;;;;;12.63;2.65;;;5.40;99.90;;;;;;5032974;28;20045;-57
2023/03/04 06:25:45;;;;;;;8.80;2.60;;;5.40;99.90;;;;;;5033548;28;20088;-56
2023/03/04 06:28:11;;;;;;;10.90;3.05;;;5.40;99.90;;;;;;5036881;28;20041;-51
2023/03/04 06:30:38;;;;;;;13.23;2.80;;;5.40;99.90;;;;;;5036481;28;20096;-56
2023/03/04 06:33:05;;;;;;;13.25;2.78;;;5.40;99.90;;;;;;5036417;28;20488;-58
2023/03/04 06:35:32;;;;;;;13.98;3.63;;;5.40;99.90;;;;;;5036466;28;20046;-58
2023/03/04 06:37:58;;;;;;;13.18;2.97;;;5.30;99.90;;;;;;5036759;28;20480;-56
2023/03/04 06:40:25;;;;;;;15.30;3.00;;;5.30;99.90;;;;;;5036265;28;20042;-58
2023/03/04 06:42:52;;;;;;;9.43;2.80;;;5.30;99.90;;;;;;5036403;28;20049;-57
2023/03/04 06:45:18;;;;;;;7.72;2.70;;;5.30;99.90;;;;;;5035992;28;20045;-57
2023/03/04 06:47:45;;;;;;;10.88;2.90;;;5.30;99.90;;;;;;5036330;28;20124;-60
2023/03/04 06:50:12;;;;;;;12.65;2.83;;;5.40;99.90;;;;;;5036374;28;20473;-57
2023/03/04 06:52:39;;;;;;;11.80;2.53;;;5.40;99.90;;;;;;5035953;28;20056;-57
2023/03/04 06:55:05;;;;;;;7.93;2.67;;;5.30;99.90;;;;;;5036307;28;20108;-59
2023/03/04 06:57:32;;;;;;;9.48;2.53;;;5.30;99.90;;;;;;5035821;28;20045;-57
2023/03/04 06:59:59;;;;;;;8.95;2.47;;;5.30;99.90;;;;;;5034580;28;20420;-59
2023/03/04 07:02:25;;;;;;;11.93;3.83;;;5.30;99.90;;;;;;5035764;28;20392;-59
2023/03/04 07:04:52;;;;;;;11.45;3.22;;;5.30;99.90;;;;;;5036375;28;20045;-59
2023/03/04 07:07:19;;;;;;;10.95;2.40;;;5.30;99.90;;;;;;5036287;28;20136;-60
2023/03/04 07:09:46;;;;;;;7.88;2.53;;;5.30;99.90;;;;;;5035941;28;20046;-54
2023/03/04 07:12:12;;;;;;;11.25;2.78;;;5.30;99.90;;;;;;5035584;28;20052;-55
2023/03/04 07:14:39;;;;;;;8.70;2.85;;;5.30;99.90;;;;;;5034214;28;20080;-55
2023/03/04 07:17:06;;;;;;;10.95;2.58;;;5.30;99.90;;;;;;5034163;28;20096;-59
2023/03/04 07:19:33;;;;;;;12.20;2.63;;;5.30;99.90;;;;;;5035836;28;20042;-55
2023/03/04 07:21:59;;;;;;;10.27;2.70;;;5.30;99.90;;;;;;5035509;28;20045;-57
2023/03/04 07:24:26;;;;;;;9.32;2.33;;;5.30;99.90;;;;;;5035299;28;20045;-57
2023/03/04 07:26:53;;;;;;;7.45;2.30;;;5.40;99.90;;;;;;5035941;28;20053;-59
2023/03/04 07:29:20;;;;;;;7.15;2.20;;;5.40;99.90;;;;;;5035892;28;20049;-54
2023/03/04 07:31:47;;;;;;;9.50;2.20;;;5.40;99.90;;;;;;5035647;28;20041;-56
2023/03/04 07:34:13;;;;;;;9.05;2.10;;;5.30;99.90;;;;;;5035751;28;20077;-56
2023/03/04 07:36:40;;;;;;;14.20;2.40;;;5.30;99.90;;;;;;5035427;28;20063;-56
2023/03/04 07:39:07;;;;;;;8.93;1.92;;;5.30;99.90;;;;;;5035658;28;20491;-57
2023/03/04 07:41:37;;;;;;;9.90;2.35;;;5.20;99.90;;;;;;5035027;28;20041;-55
2023/03/04 07:44:03;;;;;;;9.43;2.10;;;5.20;99.90;;;;;;5035687;28;20059;-53
2023/03/04 07:46:30;;;;;;;10.63;2.33;;;5.20;99.90;;;;;;5035137;28;20041;-60
2023/03/04 07:48:57;;;;;;;8.30;2.00;;;5.20;99.90;;;;;;5035952;28;20053;-50
2023/03/04 07:51:24;;;;;;;7.45;2.00;;;5.20;99.90;;;;;;5036170;28;20477;-55
2023/03/04 07:53:50;;;;;;;8.10;2.13;;;5.20;99.90;;;;;;5035369;28;20080;-58
2023/03/04 07:56:17;;;;;;;6.63;1.55;;;5.20;99.90;;;;;;5035314;28;20038;-59
2023/03/04 07:58:44;;;;;;;11.75;1.98;;;5.10;99.90;;;;;;5035205;28;20091;-58
2023/03/04 08:01:10;;;;;;;12.45;2.00;;;5.10;99.90;;;;;;5035053;28;20041;-59
2023/03/04 08:03:37;;;;;;;9.95;2.40;;;5.10;99.90;;;;;;5034728;28;20042;-58
2023/03/04 08:06:04;;;;;;;9.95;2.35;;;5.10;99.90;;;;;;5034645;28;20041;-56
2023/03/04 08:08:31;;;;;;;9.45;1.95;;;5.10;99.90;;;;;;5035094;28;20045;-55
2023/03/04 08:10:58;;;;;;;11.85;1.90;;;5.10;99.90;;;;;;5034456;28;20041;-56
2023/03/04 08:13:24;;;;;;;9.80;1.90;;;5.20;99.90;;;;;;5034145;28;20049;-58
2023/03/04 08:15:51;;;;;;;6.97;1.98;;;5.20;99.90;;;;;;5034673;28;20068;-53
2023/03/04 08:18:18;;;;;;;5.78;1.60;;;5.20;99.90;;;;;;5034274;28;20038;-55
2023/03/04 08:20:45;;;;;;;7.80;2.35;;;5.20;99.90;;;;;;5034974;28;20047;-57
2023/03/04 08:23:11;;;;;;;9.43;2.88;;;5.20;99.90;;;;;;5034583;28;20179;-58
2023/03/04 08:25:38;;;;;;;8.55;1.92;;;5.30;99.90;;;;;;5034213;28;20092;-58
2023/03/04 08:28:05;;;;;;;5.57;1.70;;;5.30;99.90;;;;;;5034348;28;20048;-57
2023/03/04 08:30:31;;;;;;;10.52;2.15;;;5.40;99.90;;;;;;5034648;28;20084;-60
2023/03/04 08:32:58;;;;;;;5.97;1.58;;;5.40;99.90;;;;;;5034421;28;20464;-53
2023/03/04 08:35:25;;;;;;;6.35;1.85;;;5.50;99.90;;;;;;5034522;28;20045;-58
2023/03/04 08:37:52;;;;;;;8.18;2.05;;;5.40;99.90;;;;;;5033968;28;20034;-54
2023/03/04 08:40:19;;;;;;;12.48;1.85;;;5.50;99.90;;;;;;5034378;28;20089;-58
2023/03/04 08:42:45;;;;;;;7.15;1.73;;;5.50;99.90;;;;;;5033951;28;20038;-60
2023/03/04 08:45:12;;;;;;;7.75;1.60;;;5.60;99.90;;;;;;5034343;28;20136;-57
2023/03/04 08:47:39;;;;;;;5.65;1.45;;;5.60;99.90;;;;;;5036369;28;20057;-57
2023/03/04 08:50:06;;;;;;;6.80;1.52;;;5.60;99.90;;;;;;5053442;28;20492;-57
2023/03/04 08:52:33;;;;;;;6.63;1.58;;;5.70;99.90;;;;;;5053483;28;20048;-60
2023/03/04 08:54:59;;;;;;;6.13;1.65;;;5.70;99.90;;;;;;5053951;28;20048;-58
2023/03/04 08:57:26;;;;;;;8.52;2.28;;;5.80;99.90;;;;;;5053844;28;20087;-53
2023/03/04 08:59:53;;;;;;;8.13;1.52;;;5.70;99.90;;;;;;5053956;28;20044;-55
2023/03/04 09:02:20;;;;;;;7.05;1.95;;;5.70;99.90;;;;;;5054017;28;20041;-60
2023/03/04 09:04:47;;;;;;;8.55;2.13;;;5.70;99.90;;;;;;5053757;28;20447;-57
2023/03/04 09:07:13;;;;;;;6.03;1.75;;;5.70;99.90;;;;;;5053364;28;20049;-57
2023/03/04 09:09:40;;;;;;;5.90;1.35;;;5.70;99.90;;;;;;5046728;28;20120;-58
2023/03/04 09:12:07;;;;;;;6.60;1.63;;;5.70;99.90;;;;;;5033178;28;20052;-56
2023/03/04 09:14:34;;;;;;;6.72;1.50;;;5.90;99.90;;;;;;5032119;28;20431;-57
2023/03/04 09:17:01;;;;;;;7.25;1.20;;;6.00;99.90;;;;;;5031766;28;20057;-56
2023/03/04 09:19:28;;;;;;;5.50;1.55;;;6.00;99.90;;;;;;5032909;28;20041;-54
2023/03/04 09:21:55;;;;;;;7.35;1.30;;;6.00;99.90;;;;;;5033219;28;20051;-58
2023/03/04 09:24:22;;;;;;;10.65;1.52;;;6.10;99.90;;;;;;5033336;28;20081;-58
2023/03/04 09:26:49;;;;;;;6.00;1.10;;;6.10;99.90;;;;;;5032496;28;20049;-55
2023/03/04 09:29:15;;;;;;;5.18;1.35;;;6.10;99.90;;;;;;5032857;28;20037;-57
2023/03/04 09:31:42;;;;;;;5.55;1.20;;;6.10;99.90;;;;;;5031300;28;20065;-52
2023/03/04 09:34:09;;;;;;;9.18;1.50;;;6.10;99.90;;;;;;5031702;28;20045;-59
2023/03/04 09:36:36;;;;;;;7.80;1.45;;;6.20;99.90;;;;;;5031908;28;20041;-57
2023/03/04 09:39:03;;;;;;;4.90;1.58;;;6.20;99.90;;;;;;5029987;28;20053;-55
2023/03/04 09:41:30;;;;;;;6.40;1.80;;;6.30;99.90;;;;;;5032055;28;20052;-59
2023/03/04 09:43:56;;;;;;;7.57;1.67;;;6.30;99.90;;;;;;5032200;28;20068;-60
2023/03/04 09:46:23;;;;;;;7.95;1.65;;;6.40;99.90;;;;;;5032394;28;20480;-58
2023/03/04 09:48:50;;;;;;;8.43;1.90;;;6.40;99.90;;;;;;5032971;28;20064;-59
2023/03/04 09:51:16;;;;;;;8.10;1.83;;;6.50;99.90;;;;;;5025999;28;20083;-56
2023/03/04 09:53:43;;;;;;;10.23;1.80;;;6.50;99.90;;;;;;5033024;28;20396;-56
2023/03/04 09:56:10;;;;;;;7.68;1.58;;;6.50;99.90;;;;;;5031547;28;20381;-57
2023/03/04 09:58:37;;;;;;;5.15;1.80;;;6.50;99.90;;;;;;5032494;28;20034;-58
2023/03/04 10:01:03;;;;;;;9.20;1.90;;;6.50;99.90;;;;;;5032740;28;20125;-59
2023/03/04 10:03:31;;;;;;;7.55;1.80;;;6.60;99.90;;;;;;5036556;28;20045;-57
2023/03/04 10:05:57;;;;;;;7.68;1.50;;;6.60;99.90;;;;;;5035392;28;20061;-52
2023/03/04 10:08:24;;;;;;;5.55;1.58;;;6.60;99.90;;;;;;5035385;28;20049;-59
2023/03/04 10:10:51;;;;;;;10.88;1.80;;;6.60;99.90;;;;;;5035820;28;20045;-60
2023/03/04 10:13:18;;;;;;;8.45;1.67;;;6.60;99.90;;;;;;5035168;28;20064;-57
2023/03/04 10:15:45;;;;;;;7.07;1.80;;;6.50;99.90;;;;;;5035884;28;20041;-53
2023/03/04 10:18:12;;;;;;;5.35;1.55;;;6.40;99.90;;;;;;5036433;28;20127;-56
2023/03/04 10:20:39;;;;;;;5.70;1.48;;;6.40;99.90;;;;;;5036366;28;20508;-55
2023/03/04 10:23:06;;;;;;;7.53;1.80;;;6.30;99.90;;;;;;5035815;28;20095;-56
2023/03/04 10:25:33;;;;;;;6.45;1.58;;;6.40;99.90;;;;;;5036312;28;20052;-57
2023/03/04 10:28:01;;;;;;;4.13;1.50;;;6.50;99.90;;;;;;5034563;28;20400;-56
2023/03/04 10:30:28;;;;;;;4.68;1.50;;;6.50;99.90;;;;;;5036324;28;20052;-59
2023/03/04 10:32:55;;;;;;;6.72;1.67;;;6.50;99.90;;;;;;5035762;28;20041;-58
2023/03/04 10:35:22;;;;;;;10.63;1.80;;;6.60;99.90;;;;;;5036313;28;20037;-60
2023/03/04 10:37:48;;;;;;;7.85;1.77;;;6.70;99.90;;;;;;5035452;28;20431;-58
2023/03/04 10:40:15;;;;;;;6.03;2.08;;;6.80;99.90;;;;;;5034619;28;20041;-58
2023/03/04 10:42:42;;;;;;;4.95;1.77;;;6.90;99.90;;;;;;5035516;28;20045;-56
2023/03/04 10:45:09;;;;;;;7.05;1.90;;;7.00;99.90;;;;;;5035848;28;20048;-58
2023/03/04 10:47:36;;;;;;;6.20;2.25;;;7.00;99.90;;;;;;5035486;28;20037;-60
2023/03/04 10:50:03;;;;;;;5.88;2.38;;;7.10;99.90;;;;;;5035996;28;20045;-60
2023/03/04 10:52:29;;;;;;;5.82;2.30;;;7.10;99.90;;;;;;5035082;28;20099;-58
2023/03/04 10:54:56;;;;;;;5.40;2.00;;;7.10;99.90;;;;;;5035774;28;20481;-56
2023/03/04 10:57:23;;;;;;;6.38;2.22;;;7.00;99.90;;;;;;5035583;28;20050;-60
2023/03/04 10:59:50;;;;;;;5.15;2.00;;;7.00;99.90;;;;;;5035261;28;20051;-59
2023/03/04 11:02:17;;;;;;;6.28;2.17;;;7.00;99.90;;;;;;5035695;28;20041;-59
2023/03/04 11:04:43;;;;;;;8.48;2.42;;;7.00;99.90;;;;;;5035164;28;20053;-60
2023/03/04 11:07:10;;;;;;;7.40;2.78;;;6.90;99.90;;;;;;5035420;28;20042;-59
2023/03/04 11:09:39;;;;;;;6.00;2.50;;;6.90;99.90;;;;;;5035497;28;20103;-58
2023/03/04 11:12:05;;;;;;;5.43;3.10;;;7.10;99.90;;;;;;5034376;28;20097;-59
2023/03/04 11:14:32;;;;;;;7.88;3.85;;;7.20;99.90;;;;;;5035293;28;20404;-60
2023/03/04 11:16:59;;;;;;;7.88;3.80;;;7.40;99.90;;;;;;5034674;28;20042;-53
2023/03/04 11:19:26;;;;;;;6.60;3.65;;;7.40;99.90;;;;;;5035454;28;20459;-60
2023/03/04 11:21:52;;;;;;;6.72;3.85;;;7.40;99.90;;;;;;5034189;28;20045;-57
2023/03/04 11:24:20;;;;;;;9.73;4.82;;;7.40;99.90;;;;;;5034512;28;20477;-56
2023/03/04 11:26:54;;;;;;;9.82;5.15;;;7.40;99.90;;;;;;5035366;28;20480;-58
2023/03/04 11:29:21;;;;;;;7.50;4.38;;;7.30;99.90;;;;;;5035071;28;20133;-60
2023/03/04 11:31:49;;;;;;;9.82;4.70;;;7.30;99.90;;;;;;5034574;28;20048;-55
2023/03/04 11:34:15;;;;;;;6.90;4.50;;;7.20;99.90;;;;;;5034867;28;20120;-58
2023/03/04 11:36:42;;;;;;;7.50;5.00;;;7.30;99.90;;;;;;5034284;28;20037;-51
2023/03/04 11:39:09;;;;;;;9.25;5.25;;;7.30;99.90;;;;;;5034990;28;20107;-57
2023/03/04 11:41:36;;;;;;;8.35;5.65;;;7.40;99.90;;;;;;5034808;28;20041;-58
2023/03/04 11:44:02;;;;;;;10.23;5.47;;;7.50;99.90;;;;;;5034277;28;20048;-61
2023/03/04 11:46:30;;;;;;;7.45;4.10;;;7.50;99.90;;;;;;5034836;28;20088;-60
2023/03/04 11:48:57;;;;;;;8.25;3.95;;;7.60;99.90;;;;;;5034691;28;20107;-60
2023/03/04 11:51:24;;;;;;;7.07;3.88;;;7.60;99.90;;;;;;5034573;28;20046;-60
2023/03/04 11:53:51;;;;;;;7.30;3.92;;;7.60;99.90;;;;;;5034468;28;20050;-60
2023/03/04 11:56:17;;;;;;;4.28;3.88;;;7.50;99.90;;;;;;5034632;28;20048;-55
2023/03/04 11:58:44;;;;;;;9.20;4.93;;;7.60;99.90;;;;;;5033247;28;20052;-55
2023/03/04 12:01:11;;;;;;;6.45;4.88;;;7.60;99.90;;;;;;5034493;28;20037;-59
2023/03/04 12:03:37;;;;;;;8.15;4.57;;;7.80;99.90;;;;;;5034297;28;20077;-56
2023/03/04 12:06:04;;;;;;;8.00;4.65;;;7.90;99.90;;;;;;5034296;28;20049;-55
2023/03/04 12:08:31;;;;;;;6.72;4.07;;;7.80;99.90;;;;;;5034393;28;20069;-53
2023/03/04 12:10:58;;;;;;;6.10;3.85;;;7.70;99.90;;;;;;5033710;28;20116;-53
2023/03/04 12:13:25;;;;;;;10.93;3.97;;;7.70;99.90;;;;;;5034015;28;20057;-57
2023/03/04 12:15:51;;;;;;;5.93;3.65;;;7.50;99.90;;;;;;5033926;28;20034;-58
2023/03/04 12:18:18;;;;;;;6.60;3.72;;;7.40;99.90;;;;;;5042173;28;20377;-59
2023/03/04 12:20:47;;;;;;;6.28;3.80;;;7.40;99.90;;;;;;5033229;28;20045;-55
2023/03/04 12:23:14;;;;;;;8.23;3.83;;;7.40;99.90;;;;;;5036196;28;20049;-60
2023/03/04 12:25:40;;;;;;;7.60;3.38;;;7.40;99.90;;;;;;5033734;28;20064;-55
2023/03/04 12:28:07;;;;;;;9.90;3.88;;;7.40;99.90;;;;;;5033793;28;20045;-55
2023/03/04 12:30:34;;;;;;;9.23;3.45;;;7.40;99.90;;;;;;5027785;28;20135;-59
2023/03/04 12:33:00;;;;;;;5.72;3.22;;;7.40;99.90;;;;;;5033922;28;20128;-57
2023/03/04 12:35:28;;;;;;;4.60;3.03;;;7.40;99.90;;;;;;5032852;28;20049;-58
2023/03/04 12:37:57;;;;;;;8.35;3.30;;;7.40;99.90;;;;;;5027577;28;20045;-58
2023/03/04 12:40:24;;;;;;;7.43;3.67;;;7.40;99.90;;;;;;5031834;28;20057;-57
2023/03/04 12:42:50;;;;;;;8.20;3.05;;;7.30;99.90;;;;;;5027461;28;20499;-59
2023/03/04 12:45:17;;;;;;;6.18;2.83;;;7.40;99.90;;;;;;5033280;28;20539;-60
2023/03/04 12:47:44;;;;;;;4.00;2.25;;;7.40;99.90;;;;;;5033700;28;20085;-59
2023/03/04 12:50:10;;;;;;;5.57;2.53;;;7.40;99.90;;;;;;5032164;28;20128;-61
2023/03/04 12:52:37;;;;;;;4.18;2.28;;;7.40;99.90;;;;;;5033906;28;20041;-61